createdAt,value
2018-12-14T00:00:57.102Z,1.60
2018-12-14T00:03:24.611Z,1.60
2018-12-14T00:05:52.111Z,1.60
2018-12-14T00:08:19.639Z,1.60
2018-12-14T00:10:47.134Z,1.60
2018-12-14T00:13:14.667Z,1.60
2018-12-14T00:15:42.163Z,1.60
2018-12-14T00:18:09.692Z,1.50
2018-12-14T00:20:37.195Z,1.60
2018-12-14T00:23:04.703Z,1.60
2018-12-14T00:25:32.231Z,1.50
2018-12-14T00:27:59.722Z,1.50
2018-12-14T00:30:27.247Z,1.50
2018-12-14T00:32:54.751Z,1.50
2018-12-14T00:35:22.556Z,1.50
2018-12-14T00:37:50.062Z,1.50
2018-12-14T00:40:17.601Z,1.50
2018-12-14T00:42:45.103Z,1.40
2018-12-14T00:45:12.712Z,1.40
2018-12-14T00:47:40.211Z,1.30
2018-12-14T00:50:07.820Z,1.30
2018-12-14T00:52:35.314Z,1.30
2018-12-14T00:55:04.094Z,1.30
2018-12-14T00:57:31.595Z,1.30
2018-12-14T00:59:59.124Z,1.30
2018-12-14T01:02:28.609Z,1.30
2018-12-14T01:04:56.600Z,1.40
2018-12-14T01:07:24.100Z,1.40
2018-12-14T01:09:51.631Z,1.40
2018-12-14T01:12:19.131Z,1.40
2018-12-14T01:14:46.722Z,1.40
2018-12-14T01:17:14.294Z,1.40
2018-12-14T01:19:41.827Z,1.40
2018-12-14T01:22:09.327Z,1.40
2018-12-14T01:24:36.855Z,1.40
2018-12-14T01:27:04.368Z,1.40
2018-12-14T01:29:31.895Z,1.40
2018-12-14T01:31:59.391Z,1.40
2018-12-14T01:34:27.003Z,1.40
2018-12-14T01:36:54.499Z,1.40
2018-12-14T01:39:22.028Z,1.40
2018-12-14T01:41:49.526Z,1.40
2018-12-14T01:44:17.053Z,1.30
2018-12-14T01:46:44.555Z,1.30
2018-12-14T01:49:12.087Z,1.30
2018-12-14T01:51:39.603Z,1.30
2018-12-14T01:54:07.131Z,1.30
2018-12-14T01:56:34.631Z,1.30
2018-12-14T01:59:02.163Z,1.30
2018-12-14T02:01:29.667Z,1.30
2018-12-14T02:03:57.196Z,1.30
2018-12-14T02:06:24.690Z,1.30
2018-12-14T02:08:52.228Z,1.30
2018-12-14T02:11:19.806Z,1.30
2018-12-14T02:13:47.335Z,1.30
2018-12-14T02:16:14.831Z,1.30
2018-12-14T02:18:42.355Z,1.30
2018-12-14T02:21:09.855Z,1.30
2018-12-14T02:23:37.391Z,1.30
2018-12-14T02:26:04.900Z,1.30
2018-12-14T02:28:32.431Z,1.30
2018-12-14T02:30:59.935Z,1.30
2018-12-14T02:33:27.464Z,1.30
2018-12-14T02:35:54.976Z,1.30
2018-12-14T02:38:22.503Z,1.40
2018-12-14T02:40:50.003Z,1.40
2018-12-14T02:43:18.308Z,1.30
2018-12-14T02:45:45.811Z,1.30
2018-12-14T02:48:13.346Z,1.30
2018-12-14T02:50:40.859Z,1.30
2018-12-14T02:53:08.391Z,1.30
2018-12-14T02:55:35.897Z,1.30
2018-12-14T02:58:03.584Z,1.30
2018-12-14T03:00:31.165Z,1.30
2018-12-14T03:02:58.776Z,1.30
2018-12-14T03:05:26.280Z,1.30
2018-12-14T03:07:53.812Z,1.30
2018-12-14T03:10:21.320Z,1.30
2018-12-14T03:12:48.857Z,1.30
2018-12-14T03:15:16.363Z,1.30
2018-12-14T03:17:43.891Z,1.30
2018-12-14T03:20:11.644Z,1.30
2018-12-14T03:22:39.247Z,1.30
2018-12-14T03:25:06.751Z,1.20
2018-12-14T03:27:34.276Z,1.20
2018-12-14T03:30:01.827Z,1.20
2018-12-14T03:32:29.417Z,1.20
2018-12-14T03:34:56.957Z,1.20
2018-12-14T03:37:24.467Z,1.30
2018-12-14T03:39:52.002Z,1.30
2018-12-14T03:42:19.507Z,1.20
2018-12-14T03:44:47.038Z,1.20
2018-12-14T03:47:14.539Z,1.20
2018-12-14T03:49:42.073Z,1.20
2018-12-14T03:52:09.568Z,1.20
2018-12-14T03:54:37.183Z,1.20
2018-12-14T03:57:04.724Z,1.20
2018-12-14T03:59:32.227Z,1.20
2018-12-14T04:01:59.827Z,1.20
2018-12-14T04:04:27.338Z,1.20
2018-12-14T04:06:54.907Z,1.20
2018-12-14T04:09:22.491Z,1.10
2018-12-14T04:11:50.015Z,1.10
2018-12-14T04:14:17.516Z,1.10
2018-12-14T04:16:45.047Z,1.10
2018-12-14T04:19:12.543Z,1.10
2018-12-14T04:21:40.047Z,1.10
2018-12-14T04:24:07.579Z,1.10
2018-12-14T04:26:35.077Z,1.10
2018-12-14T04:29:02.759Z,1.10
2018-12-14T04:31:30.261Z,1.10
2018-12-14T04:33:57.787Z,1.10
2018-12-14T04:36:25.284Z,1.10
2018-12-14T04:38:52.815Z,1.10
2018-12-14T04:41:20.310Z,1.10
2018-12-14T04:43:47.835Z,1.10
2018-12-14T04:46:15.335Z,1.10
2018-12-14T04:48:42.863Z,1.10
2018-12-14T04:51:10.360Z,1.00
2018-12-14T04:53:37.886Z,1.00
2018-12-14T04:56:05.387Z,1.00
2018-12-14T04:58:32.913Z,1.00
2018-12-14T05:01:00.412Z,1.00
2018-12-14T05:03:27.935Z,1.10
2018-12-14T05:05:55.427Z,1.00
2018-12-14T05:08:22.959Z,1.00
2018-12-14T05:10:50.458Z,1.00
2018-12-14T05:13:17.960Z,1.10
2018-12-14T05:15:45.496Z,1.00
2018-12-14T05:18:12.995Z,1.10
2018-12-14T05:20:40.516Z,1.00
2018-12-14T05:23:08.022Z,1.10
2018-12-14T05:25:35.555Z,1.10
2018-12-14T05:28:03.054Z,1.10
2018-12-14T05:30:30.655Z,1.10
2018-12-14T05:32:58.151Z,1.00
2018-12-14T05:35:25.675Z,1.00
2018-12-14T05:37:53.174Z,1.00
2018-12-14T05:40:20.707Z,1.00
2018-12-14T05:42:48.212Z,1.00
2018-12-14T05:45:15.715Z,1.00
2018-12-14T05:47:44.098Z,1.00
2018-12-14T05:50:11.595Z,1.00
2018-12-14T05:52:39.128Z,1.10
2018-12-14T05:55:06.707Z,1.00
2018-12-14T05:57:34.226Z,1.10
2018-12-14T06:00:01.727Z,1.10
2018-12-14T06:02:29.258Z,1.10
2018-12-14T06:04:56.759Z,1.10
2018-12-14T06:07:24.282Z,1.10
2018-12-14T06:09:51.775Z,1.10
2018-12-14T06:12:19.564Z,1.10
2018-12-14T06:14:47.058Z,1.10
2018-12-14T06:17:14.593Z,1.10
2018-12-14T06:19:42.087Z,1.10
2018-12-14T06:22:09.583Z,1.10
2018-12-14T06:24:37.108Z,1.10
2018-12-14T06:27:04.684Z,1.10
2018-12-14T06:29:32.206Z,1.10
2018-12-14T06:31:59.707Z,1.10
2018-12-14T06:34:27.243Z,1.00
2018-12-14T06:36:55.614Z,1.00
2018-12-14T06:39:23.314Z,1.00
2018-12-14T06:41:51.092Z,1.00
2018-12-14T06:44:18.614Z,1.00
2018-12-14T06:46:46.116Z,1.00
2018-12-14T06:49:13.767Z,1.00
2018-12-14T06:51:41.264Z,1.00
2018-12-14T06:54:08.792Z,1.00
2018-12-14T06:56:36.300Z,1.00
2018-12-14T06:59:03.822Z,1.10
2018-12-14T07:01:31.327Z,1.00
2018-12-14T07:03:58.829Z,1.00
2018-12-14T07:06:26.355Z,1.00
2018-12-14T07:08:53.851Z,1.00
2018-12-14T07:11:21.384Z,1.00
2018-12-14T07:13:48.887Z,1.00
2018-12-14T07:16:16.411Z,1.00
2018-12-14T07:18:43.920Z,1.00
2018-12-14T07:21:11.447Z,1.00
2018-12-14T07:23:38.943Z,1.00
2018-12-14T07:26:06.476Z,1.00
2018-12-14T07:28:33.975Z,1.00
2018-12-14T07:31:01.471Z,1.10
2018-12-14T07:33:29.009Z,1.10
2018-12-14T07:35:56.510Z,1.10
2018-12-14T07:38:24.061Z,1.10
2018-12-14T07:40:51.655Z,1.10
2018-12-14T07:43:19.178Z,1.10
2018-12-14T07:45:46.681Z,1.10
2018-12-14T07:48:14.210Z,1.10
2018-12-14T07:50:41.711Z,1.10
2018-12-14T07:53:09.346Z,1.10
2018-12-14T07:55:36.968Z,1.10
2018-12-14T07:58:04.491Z,1.10
2018-12-14T08:00:31.994Z,1.10
2018-12-14T08:02:59.532Z,1.10
2018-12-14T08:05:27.107Z,1.10
2018-12-14T08:07:54.630Z,1.10
2018-12-14T08:10:22.207Z,1.10
2018-12-14T08:12:50.315Z,1.10
2018-12-14T08:15:18.086Z,1.00
2018-12-14T08:17:45.617Z,1.00
2018-12-14T08:20:17.043Z,1.10
2018-12-14T08:22:42.666Z,1.10
2018-12-14T08:25:10.166Z,1.10
2018-12-14T08:27:37.691Z,1.10
2018-12-14T08:30:06.747Z,1.10
2018-12-14T08:32:34.271Z,1.10
2018-12-14T08:35:01.778Z,1.10
2018-12-14T08:37:29.374Z,1.20
2018-12-14T08:39:56.931Z,1.20
2018-12-14T08:42:24.423Z,1.20
2018-12-14T08:44:51.960Z,1.20
2018-12-14T08:47:19.462Z,1.20
2018-12-14T08:49:46.991Z,1.20
2018-12-14T08:52:14.489Z,1.20
2018-12-14T08:54:42.019Z,1.20
2018-12-14T08:57:09.599Z,1.20
2018-12-14T08:59:37.127Z,1.20
2018-12-14T09:02:04.632Z,1.20
2018-12-14T09:04:32.158Z,1.30
2018-12-14T09:06:59.660Z,1.30
2018-12-14T09:09:27.198Z,1.30
2018-12-14T09:11:54.701Z,1.40
2018-12-14T09:14:22.195Z,1.40
2018-12-14T09:16:49.718Z,1.40
2018-12-14T09:19:17.215Z,1.40
2018-12-14T09:21:44.748Z,1.40
2018-12-14T09:24:12.247Z,1.40
2018-12-14T09:26:39.776Z,1.50
2018-12-14T09:29:07.347Z,1.50
2018-12-14T09:31:35.051Z,1.50
2018-12-14T09:34:02.558Z,1.60
2018-12-14T09:36:30.084Z,1.50
2018-12-14T09:38:57.579Z,1.50
2018-12-14T09:41:25.110Z,1.50
2018-12-14T09:43:54.480Z,1.50
2018-12-14T09:46:22.206Z,1.50
2018-12-14T09:48:49.734Z,1.50
2018-12-14T09:51:17.236Z,1.50
2018-12-14T09:53:44.764Z,1.50
2018-12-14T09:56:12.443Z,1.50
2018-12-14T09:58:39.967Z,1.50
2018-12-14T10:01:07.538Z,1.50
2018-12-14T10:03:35.348Z,1.50
2018-12-14T10:06:02.847Z,1.50
2018-12-14T10:08:30.467Z,1.50
2018-12-14T10:10:58.150Z,1.50
2018-12-14T10:13:25.951Z,1.50
2018-12-14T10:15:54.429Z,1.50
2018-12-14T10:18:22.042Z,1.60
2018-12-14T10:20:49.535Z,1.50
2018-12-14T10:23:17.059Z,1.50
2018-12-14T10:25:44.564Z,1.50
2018-12-14T10:28:12.091Z,1.50
2018-12-14T10:30:39.597Z,1.50
2018-12-14T10:33:07.123Z,1.50
2018-12-14T10:35:34.624Z,1.60
2018-12-14T10:38:02.155Z,1.60
2018-12-14T10:40:29.654Z,1.60
2018-12-14T10:42:57.147Z,1.70
2018-12-14T10:45:25.751Z,1.60
2018-12-14T10:47:53.253Z,1.60
2018-12-14T10:50:20.778Z,1.60
2018-12-14T10:52:48.280Z,1.60
2018-12-14T10:55:15.803Z,1.60
2018-12-14T10:57:43.575Z,1.60
2018-12-14T11:00:15.430Z,1.60
2018-12-14T11:02:42.927Z,1.60
2018-12-14T11:05:10.450Z,1.60
2018-12-14T11:07:37.946Z,1.60
2018-12-14T11:10:07.235Z,1.60
2018-12-14T11:12:34.727Z,1.60
2018-12-14T11:15:02.256Z,1.60
2018-12-14T11:17:29.755Z,1.60
2018-12-14T11:19:57.275Z,1.60
2018-12-14T11:22:24.776Z,1.60
2018-12-14T11:24:52.315Z,1.60
2018-12-14T11:27:19.815Z,1.60
2018-12-14T11:29:47.322Z,1.60
2018-12-14T11:32:15.766Z,1.60
2018-12-14T11:34:43.263Z,1.70
2018-12-14T11:37:10.791Z,1.70
2018-12-14T11:39:38.292Z,1.70
2018-12-14T11:42:05.818Z,1.80
2018-12-14T11:44:33.315Z,1.70
2018-12-14T11:47:00.838Z,1.70
2018-12-14T11:49:28.331Z,1.70
2018-12-14T11:51:55.855Z,1.70
2018-12-14T11:54:23.355Z,1.70
2018-12-14T11:56:50.884Z,1.70
2018-12-14T11:59:18.387Z,1.60
2018-12-14T12:01:45.911Z,1.70
2018-12-14T12:04:13.406Z,1.70
2018-12-14T12:06:40.934Z,1.70
2018-12-14T12:09:09.092Z,1.70
2018-12-14T12:11:36.588Z,1.80
2018-12-14T12:14:04.113Z,1.80
2018-12-14T12:16:31.611Z,1.80
2018-12-14T12:18:59.144Z,1.80
2018-12-14T12:21:26.727Z,1.80
2018-12-14T12:23:55.446Z,1.80
2018-12-14T12:26:23.289Z,1.80
2018-12-14T12:28:50.820Z,1.80
2018-12-14T12:31:18.315Z,1.80
2018-12-14T12:33:45.838Z,1.70
2018-12-14T12:36:13.335Z,1.70
2018-12-14T12:38:40.864Z,1.70
2018-12-14T12:41:08.363Z,1.70
2018-12-14T12:43:35.894Z,1.60
2018-12-14T12:46:03.395Z,1.60
2018-12-14T12:48:30.927Z,1.60
2018-12-14T12:51:03.067Z,1.60
2018-12-14T12:53:27.975Z,1.60
2018-12-14T12:55:55.475Z,1.60
2018-12-14T12:58:23.019Z,1.60
2018-12-14T13:00:50.510Z,1.60
2018-12-14T13:03:18.011Z,1.60
2018-12-14T13:05:45.535Z,1.60
2018-12-14T13:08:13.031Z,1.60
2018-12-14T13:10:40.562Z,1.60
2018-12-14T13:13:08.055Z,1.60
2018-12-14T13:15:35.588Z,1.50
2018-12-14T13:18:03.087Z,1.50
2018-12-14T13:20:30.627Z,1.60
2018-12-14T13:22:58.124Z,1.60
2018-12-14T13:25:25.618Z,1.60
2018-12-14T13:27:53.147Z,1.60
2018-12-14T13:30:20.638Z,1.60
2018-12-14T13:32:48.163Z,1.60
2018-12-14T13:35:15.655Z,1.60
2018-12-14T13:37:43.182Z,1.60
2018-12-14T13:40:10.759Z,1.50
2018-12-14T13:42:38.306Z,1.50
2018-12-14T13:45:05.890Z,1.50
2018-12-14T13:47:33.426Z,1.50
2018-12-14T13:50:00.975Z,1.50
2018-12-14T13:52:29.244Z,1.50
2018-12-14T13:54:56.917Z,1.50
2018-12-14T13:57:24.410Z,1.50
2018-12-14T13:59:51.939Z,1.50
2018-12-14T14:02:19.444Z,1.50
2018-12-14T14:04:46.967Z,1.50
2018-12-14T14:07:14.464Z,1.50
2018-12-14T14:09:42.071Z,1.50
2018-12-14T14:12:09.572Z,1.50
2018-12-14T14:14:37.191Z,1.50
2018-12-14T14:17:04.682Z,1.50
2018-12-14T14:19:32.451Z,1.50
2018-12-14T14:21:59.987Z,1.40
2018-12-14T14:24:27.482Z,1.40
2018-12-14T14:26:55.009Z,1.40
2018-12-14T14:29:22.502Z,1.40
2018-12-14T14:31:50.026Z,1.40
2018-12-14T14:34:17.527Z,1.40
2018-12-14T14:36:45.055Z,1.40
2018-12-14T14:39:12.551Z,1.40
2018-12-14T14:41:40.079Z,1.40
2018-12-14T14:44:07.574Z,1.40
2018-12-14T14:46:35.077Z,1.40
2018-12-14T14:49:02.607Z,1.40
2018-12-14T14:51:30.283Z,1.40
2018-12-14T14:53:57.811Z,1.40
2018-12-14T14:56:25.307Z,1.40
2018-12-14T14:58:52.831Z,1.40
2018-12-14T15:01:20.330Z,1.40
2018-12-14T15:03:47.867Z,1.30
2018-12-14T15:06:15.367Z,1.30
2018-12-14T15:08:42.868Z,1.40
2018-12-14T15:11:10.480Z,1.40
2018-12-14T15:13:37.983Z,1.30
2018-12-14T15:16:05.517Z,1.40
2018-12-14T15:18:33.020Z,1.40
2018-12-14T15:21:00.552Z,1.40
2018-12-14T15:23:28.050Z,1.40
2018-12-14T15:25:55.586Z,1.40
2018-12-14T15:28:23.078Z,1.40
2018-12-14T15:30:50.574Z,1.40
2018-12-14T15:33:18.103Z,1.40
2018-12-14T15:35:45.599Z,1.40
2018-12-14T15:38:13.128Z,1.40
2018-12-14T15:40:40.633Z,1.40
2018-12-14T15:43:08.159Z,1.40
2018-12-14T15:45:35.743Z,1.40
2018-12-14T15:48:03.801Z,1.30
2018-12-14T15:50:31.303Z,1.30
2018-12-14T15:52:58.828Z,1.30
2018-12-14T15:55:26.322Z,1.30
2018-12-14T15:57:53.847Z,1.30
2018-12-14T16:00:21.427Z,1.30
2018-12-14T16:02:48.951Z,1.30
2018-12-14T16:05:16.446Z,1.30
2018-12-14T16:07:43.975Z,1.30
2018-12-14T16:10:11.471Z,1.30
2018-12-14T16:12:38.995Z,1.30
2018-12-14T16:15:07.754Z,1.30
2018-12-14T16:17:35.647Z,1.20
2018-12-14T16:20:04.614Z,1.30
2018-12-14T16:22:32.142Z,1.30
2018-12-14T16:25:00.608Z,1.30
2018-12-14T16:27:28.131Z,1.30
2018-12-14T16:29:55.636Z,1.30
2018-12-14T16:32:23.158Z,1.30
2018-12-14T16:34:50.667Z,1.30
2018-12-14T16:37:18.255Z,1.30
2018-12-14T16:39:45.818Z,1.30
2018-12-14T16:42:13.343Z,1.30
2018-12-14T16:44:40.835Z,1.30
2018-12-14T16:47:08.359Z,1.30
2018-12-14T16:49:35.863Z,1.30
2018-12-14T16:52:03.408Z,1.30
2018-12-14T16:54:30.907Z,1.30
2018-12-14T16:56:58.483Z,1.30
2018-12-14T16:59:26.015Z,1.30
2018-12-14T17:01:53.598Z,1.30
2018-12-14T17:04:21.131Z,1.30
2018-12-14T17:06:48.639Z,1.30
2018-12-14T17:09:16.163Z,1.30
2018-12-14T17:11:43.735Z,1.30
2018-12-14T17:14:11.268Z,1.30
2018-12-14T17:16:38.763Z,1.20
2018-12-14T17:19:06.270Z,1.20
2018-12-14T17:21:33.912Z,1.20
2018-12-14T17:24:01.407Z,1.30
2018-12-14T17:26:28.930Z,1.20
2018-12-14T17:28:56.431Z,1.20
2018-12-14T17:31:25.109Z,1.20
2018-12-14T17:33:52.780Z,1.20
2018-12-14T17:36:20.315Z,1.20
2018-12-14T17:38:47.839Z,1.30
2018-12-14T17:41:15.335Z,1.30
2018-12-14T17:43:42.858Z,1.20
2018-12-14T17:46:10.359Z,1.20
2018-12-14T17:48:37.896Z,1.20
2018-12-14T17:51:05.400Z,1.20
2018-12-14T17:53:32.899Z,1.20
2018-12-14T17:56:00.430Z,1.20
2018-12-14T17:58:27.924Z,1.20
2018-12-14T18:00:58.395Z,1.20
2018-12-14T18:03:24.975Z,1.20
2018-12-14T18:05:52.507Z,1.20
2018-12-14T18:08:20.003Z,1.20
2018-12-14T18:10:47.608Z,1.20
2018-12-14T18:13:15.103Z,1.30
2018-12-14T18:15:46.329Z,1.20
2018-12-14T18:18:12.166Z,1.20
2018-12-14T18:20:39.691Z,1.20
2018-12-14T18:23:07.187Z,1.20
2018-12-14T18:25:34.724Z,1.20
2018-12-14T18:28:02.219Z,1.20
2018-12-14T18:30:29.743Z,1.20
2018-12-14T18:32:57.420Z,1.20
2018-12-14T18:35:24.951Z,1.30
2018-12-14T18:37:52.448Z,1.20
2018-12-14T18:40:19.979Z,1.30
2018-12-14T18:42:47.479Z,1.20
2018-12-14T18:45:14.986Z,1.20
2018-12-14T18:47:42.520Z,1.30
2018-12-14T18:50:10.019Z,1.30
2018-12-14T18:52:37.543Z,1.30
2018-12-14T18:55:05.043Z,1.30
2018-12-14T18:57:32.567Z,1.30
2018-12-14T19:00:00.067Z,1.30
2018-12-14T19:02:27.590Z,1.30
2018-12-14T19:04:55.090Z,1.30
2018-12-14T19:07:22.619Z,1.30
2018-12-14T19:09:50.291Z,1.30
2018-12-14T19:12:18.492Z,1.30
2018-12-14T19:14:45.995Z,1.30
2018-12-14T19:17:13.531Z,1.30
2018-12-14T19:19:41.031Z,1.30
2018-12-14T19:22:08.559Z,1.30
2018-12-14T19:24:36.054Z,1.30
2018-12-14T19:27:03.590Z,1.30
2018-12-14T19:29:31.083Z,1.30
2018-12-14T19:31:58.583Z,1.30
2018-12-14T19:34:31.430Z,1.20
2018-12-14T19:36:55.650Z,1.20
2018-12-14T19:39:24.651Z,1.30
2018-12-14T19:41:52.151Z,1.20
2018-12-14T19:44:19.675Z,1.30
2018-12-14T19:46:47.175Z,1.30
2018-12-14T19:49:14.703Z,1.30
2018-12-14T19:51:42.203Z,1.30
2018-12-14T19:54:09.731Z,1.30
2018-12-14T19:56:37.230Z,1.30
2018-12-14T19:59:04.759Z,1.30
2018-12-14T20:01:32.258Z,1.30
2018-12-14T20:03:59.787Z,1.30
2018-12-14T20:06:27.284Z,1.30
2018-12-14T20:08:54.813Z,1.30
2018-12-14T20:11:22.315Z,1.30
2018-12-14T20:13:49.842Z,1.30
2018-12-14T20:16:17.344Z,1.30
2018-12-14T20:18:44.875Z,1.30
2018-12-14T20:21:12.374Z,1.30
2018-12-14T20:23:39.942Z,1.30
2018-12-14T20:26:07.522Z,1.30
2018-12-14T20:28:35.021Z,1.20
2018-12-14T20:31:02.550Z,1.30
2018-12-14T20:33:30.051Z,1.30
2018-12-14T20:35:57.582Z,1.30
2018-12-14T20:38:25.088Z,1.30
2018-12-14T20:40:52.628Z,1.30
2018-12-14T20:43:20.125Z,1.30
2018-12-14T20:45:47.642Z,1.30
2018-12-14T20:48:15.144Z,1.30
2018-12-14T20:50:42.666Z,1.30
2018-12-14T20:53:10.162Z,1.20
2018-12-14T20:55:37.691Z,1.20
2018-12-14T20:58:05.195Z,1.30
2018-12-14T21:00:32.730Z,1.30
2018-12-14T21:03:00.239Z,1.30
2018-12-14T21:05:27.743Z,1.30
2018-12-14T21:07:55.267Z,1.30
2018-12-14T21:10:22.767Z,1.30
2018-12-14T21:12:50.294Z,1.30
2018-12-14T21:15:17.787Z,1.30
2018-12-14T21:17:45.322Z,1.30
2018-12-14T21:20:12.820Z,1.30
2018-12-14T21:22:40.347Z,1.30
2018-12-14T21:25:07.843Z,1.20
2018-12-14T21:27:35.366Z,1.20
2018-12-14T21:30:03.619Z,1.20
2018-12-14T21:32:31.142Z,1.20
2018-12-14T21:34:58.634Z,1.20
2018-12-14T21:37:26.168Z,1.20
2018-12-14T21:39:53.671Z,1.10
2018-12-14T21:42:21.199Z,1.10
2018-12-14T21:44:48.699Z,1.10
2018-12-14T21:47:16.222Z,1.10
2018-12-14T21:49:43.719Z,1.10
2018-12-14T21:52:11.247Z,1.10
2018-12-14T21:54:38.819Z,1.10
2018-12-14T21:57:06.356Z,1.10
2018-12-14T21:59:33.851Z,1.10
2018-12-14T22:02:01.426Z,1.10
2018-12-14T22:04:28.929Z,1.10
2018-12-14T22:06:56.459Z,1.10
2018-12-14T22:09:23.961Z,1.10
2018-12-14T22:11:51.492Z,1.10
2018-12-14T22:14:18.989Z,1.10
2018-12-14T22:16:46.515Z,1.10
2018-12-14T22:19:14.099Z,1.10
2018-12-14T22:21:41.629Z,1.00
2018-12-14T22:24:09.122Z,1.10
2018-12-14T22:26:36.648Z,1.10
2018-12-14T22:29:04.149Z,1.20
2018-12-14T22:31:31.647Z,1.20
2018-12-14T22:33:59.180Z,1.20
2018-12-14T22:36:26.684Z,1.20
2018-12-14T22:38:54.206Z,1.10
2018-12-14T22:41:21.789Z,1.20
2018-12-14T22:43:49.319Z,1.20
2018-12-14T22:46:16.815Z,1.20
2018-12-14T22:48:44.339Z,1.20
2018-12-14T22:51:11.839Z,1.20
2018-12-14T22:53:39.363Z,1.20
2018-12-14T22:56:06.858Z,1.20
2018-12-14T22:58:34.391Z,1.20
2018-12-14T23:01:01.892Z,1.20
2018-12-14T23:03:29.419Z,1.20
2018-12-14T23:05:56.915Z,1.20
2018-12-14T23:08:24.448Z,1.20
2018-12-14T23:10:51.951Z,1.20
2018-12-14T23:13:19.484Z,1.20
2018-12-14T23:15:46.979Z,1.20
2018-12-14T23:18:14.554Z,1.20
2018-12-14T23:20:42.047Z,1.20
2018-12-14T23:23:10.324Z,1.20
2018-12-14T23:25:37.819Z,1.20
2018-12-14T23:28:05.703Z,1.20
2018-12-14T23:30:33.475Z,1.20
2018-12-14T23:33:00.975Z,1.20
2018-12-14T23:35:28.527Z,1.20
2018-12-14T23:37:56.035Z,1.20
2018-12-14T23:40:23.564Z,1.20
2018-12-14T23:42:51.062Z,1.20
2018-12-14T23:45:18.599Z,1.20
2018-12-14T23:47:46.101Z,1.20
2018-12-14T23:50:13.628Z,1.10
2018-12-14T23:52:41.124Z,1.10
2018-12-14T23:55:08.654Z,1.10
2018-12-14T23:57:36.152Z,1.10
